Suederoog — ZDHC8 — position and weather

sailwx.info

Track history (hours):
 
Tides and Currents Weather Stations Pressure Air Temp Water Temp Dewpoint Dewpoint Depression Visibility Wind Speed Wind Dir Waves Ship Positions

Suederoog

Last reported at 2016-May-05 17:33 UTC. Time now 2016-May-05 18:05 UTC.
Position N 59°58' E 027°05'.

Length 161 m; draft 8.5 m.

Type: Ship (hazmat cat A). MMSI: 236300000.

Date/timePositionNaut miles runAvg speedWind from/ knotsBaromVisibWave heightAir tempDewpointWater temp
2016-May-05 17:33N 59°58' E 027°05'1211.6
2016-May-05 16:33N 59°60' E 026°41'1212.1
2016-May-05 15:33N 59°56' E 026°18'1212.2
2016-May-05 14:33N 59°53' E 025°55'5112.0
2016-May-05 10:16N 59°42' E 024°15'911.9
2016-May-05 09:33N 59°39' E 023°59'1212.1
2016-May-05 08:32N 59°35' E 023°36'1212.0
2016-May-05 07:32N 59°31' E 023°14'1212.1
2016-May-05 06:33N 59°28' E 022°51'1212.1
2016-May-05 05:33N 59°23' E 022°30'1212.2
2016-May-05 04:33N 59°15' E 022°11'31314.9
2016-May-04 07:32N 55°35' E 015°16'1616.5
2016-May-04 06:34N 55°27' E 014°52'1616.1
2016-May-04 05:33N 55°17' E 014°30'1414.4
2016-May-04 04:33N 55°06' E 014°14'1616.4
2016-May-04 03:34N 54°58' E 013°50'1717.0
2016-May-04 02:34N 54°52' E 013°22'1817.2
2016-May-04 01:30N 54°47' E 012°51'1616.9
2016-May-04 00:32N 54°39' E 012°26'1515.9
2016-May-03 23:34N 54°26' E 012°13'1616.1
2016-May-03 22:34N 54°25' E 011°45'1717.5
2016-May-03 21:34N 54°33' E 011°18'1716.8
2016-May-03 20:34N 54°34' E 010°49'1916.7
2016-May-03 19:26N 54°29' E 010°18'910.5
2016-May-03 18:33N 54°22' E 010°09'2 2.1
2016-May-03 17:33N 54°22' E 010°05'7 6.0
2016-May-03 16:26N 54°21' E 009°54'24 7.4
2016-May-03 13:07N 54°07' E 009°20'4 7.7
2016-May-03 12:33N 54°03' E 009°18'1 1.2
2016-May-03 11:33N 54°01' E 009°18'5 5.3
2016-May-03 10:33N 53°57' E 009°14'4 4.2
2016-May-03 09:33N 53°54' E 009°09'1 1.4
2016-May-03 08:33N 53°53' E 009°07'3 2.8
2016-May-03 07:33N 53°53' E 009°11'7 6.6
2016-May-03 06:33N 53°50' E 009°21'1514.8
2016-May-03 05:33N 53°37' E 009°33'1312.7
2016-May-03 04:33N 53°33' E 009°53'1 1.0
2016-May-03 03:33N 53°32' E 009°55'0 0.0
2016-May-03 02:33N 53°32' E 009°55'0 0.0
2016-May-03 01:32N 53°32' E 009°55'0 0.0
2016-May-03 00:33N 53°32' E 009°55'0 0.0
2016-May-02 23:32N 53°32' E 009°55'0 0.0
2016-May-02 22:33N 53°32' E 009°55'0 0.0
2016-May-02 21:32N 53°32' E 009°55'0 0.0
2016-May-02 20:33N 53°32' E 009°55'0 0.0
2016-May-02 19:33N 53°32' E 009°55'0 0.0
2016-May-02 18:33N 53°32' E 009°55'0 0.0
2016-May-02 17:33N 53°32' E 009°55'0 0.3
2016-May-02 16:33N 53°32' E 009°54'2 1.5
2016-May-02 15:31N 53°32' E 009°57'0 0.0
2016-May-02 14:31N 53°32' E 009°57'0 0.0
2016-May-02 13:31N 53°32' E 009°57'0 0.0
2016-May-02 12:31N 53°32' E 009°57'0 0.0
2016-May-02 11:31N 53°32' E 009°57'0 0.0
2016-May-02 10:31N 53°32' E 009°57'0 0.0
2016-May-02 09:31N 53°32' E 009°57'0 0.0
2016-May-02 08:31N 53°32' E 009°57'0 0.0
2016-May-02 07:31N 53°32' E 009°57'0 0.0
2016-May-02 06:31N 53°32' E 009°57'0 0.0
2016-May-02 05:31N 53°32' E 009°57'0 0.0
2016-May-02 04:31N 53°32' E 009°57'0 0.0
2016-May-02 03:31N 53°32' E 009°57'0 0.0
2016-May-02 02:31N 53°32' E 009°57'0 0.0
2016-May-02 01:31N 53°32' E 009°57'0 0.0
2016-May-02 00:31N 53°32' E 009°57'0 0.0
2016-May-01 23:31N 53°32' E 009°57'0 0.0
2016-May-01 22:31N 53°32' E 009°57'0 0.0
2016-May-01 21:31N 53°32' E 009°57'0 0.0
2016-May-01 20:31N 53°32' E 009°57'0 0.0
2016-May-01 19:31N 53°32' E 009°57'2 2.2
2016-May-01 18:33N 53°32' E 009°54'1414.0
2016-May-01 17:33N 53°38' E 009°32'1817.8
2016-May-01 16:34N 53°53' E 009°15'4 3.8
2016-May-01 15:33N 53°54' E 009°09'1 1.1
2016-May-01 14:34N 53°54' E 009°10'7 6.7
2016-May-01 13:33N 53°60' E 009°17'8 6.9
2016-May-01 12:27N 54°07' E 009°20'9 6.8
2016-May-01 11:05N 54°12' E 009°33'4 6.7
2016-May-01 10:31N 54°15' E 009°37'6 6.0
2016-May-01 09:34N 54°20' E 009°43'6 6.0
2016-May-01 08:34N 54°21' E 009°53'5 4.6
2016-May-01 07:34N 54°22' E 010°01'4 4.3
2016-May-01 06:32N 54°22' E 010°09'1 1.3
2016-May-01 05:34N 54°22' E 010°11'2 2.2
2016-May-01 04:34N 54°24' E 010°12'7 7.3
2016-May-01 03:34N 54°31' E 010°18'0 0.0
2016-May-01 02:32N 54°31' E 010°18'0 0.0
2016-May-01 01:32N 54°31' E 010°18'0 0.0
2016-May-01 00:32N 54°31' E 010°18'0 0.0
2016-Apr-30 23:32N 54°31' E 010°18'0 0.1
2016-Apr-30 22:32N 54°31' E 010°18'0 0.2
2016-Apr-30 21:32N 54°31' E 010°18'9 9.2
2016-Apr-30 20:33N 54°34' E 010°33'1211.8
2016-Apr-30 19:33N 54°35' E 010°53'1211.8
2016-Apr-30 18:33N 54°35' E 011°14'1212.2
2016-Apr-30 17:33N 54°30' E 011°33'1211.6
2016-Apr-30 16:33N 54°26' E 011°52'1111.1
2016-Apr-30 15:33N 54°27' E 012°11'1211.7
2016-Apr-30 14:33N 54°37' E 012°20'4711.7
2016-Apr-30 10:33N 54°58' E 013°33'1211.7
2016-Apr-30 09:33N 55°02' E 013°52'1110.9
2016-Apr-30 08:33N 55°08' E 014°08'1111.2
2016-Apr-30 07:33N 55°16' E 014°21'1111.4
2016-Apr-30 06:33N 55°25' E 014°34'1111.4
2016-Apr-30 05:33N 55°31' E 014°50'1111.2
2016-Apr-30 04:33N 55°37' E 015°08'1111.3
2016-Apr-30 03:33N 55°43' E 015°25'1111.3
2016-Apr-30 02:33N 55°48' E 015°43'1111.3
2016-Apr-30 01:33N 55°53' E 016°01'1211.7
2016-Apr-30 00:32N 55°59' E 016°19'31311.0
2016-Apr-28 20:07N 59°37' E 023°21'610.2
2016-Apr-28 19:33N 59°39' E 023°32'1010.4
2016-Apr-28 18:33N 59°42' E 023°52'7911.3
2016-Apr-28 11:33N 60°09' E 026°20'1212.5
2016-Apr-28 10:33N 60°19' E 026°35'1211.7
2016-Apr-28 09:33N 60°25' E 026°55'0 0.0
2016-Apr-28 08:31N 60°25' E 026°55'0 0.0
2016-Apr-28 07:31N 60°25' E 026°55'0 0.0
2016-Apr-28 06:31N 60°25' E 026°55'0 0.0
2016-Apr-28 05:31N 60°25' E 026°55'0 0.0
2016-Apr-28 04:31N 60°25' E 026°55'0 0.0
2016-Apr-28 03:31N 60°25' E 026°55'0 0.0
2016-Apr-28 02:31N 60°25' E 026°55'0 0.0
2016-Apr-28 01:31N 60°25' E 026°55'0 0.0
2016-Apr-28 00:31N 60°25' E 026°55'0 0.0
2016-Apr-27 23:31N 60°25' E 026°55'0 0.0
2016-Apr-27 22:31N 60°25' E 026°55'0 0.0
2016-Apr-27 21:31N 60°25' E 026°55'0 0.0
2016-Apr-27 20:31N 60°25' E 026°55'0 0.0
2016-Apr-27 19:31N 60°25' E 026°55'0 0.0
2016-Apr-27 18:31N 60°25' E 026°55'0 0.0
2016-Apr-27 17:31N 60°25' E 026°55'0 0.0
2016-Apr-27 16:31N 60°25' E 026°55'0 0.0
2016-Apr-27 15:31N 60°25' E 026°55'0 0.0
2016-Apr-27 14:31N 60°25' E 026°55'0 0.0
2016-Apr-27 13:31N 60°25' E 026°55'0 0.0
2016-Apr-27 12:31N 60°25' E 026°55'0 0.0
2016-Apr-27 11:31N 60°25' E 026°55'0 0.0
2016-Apr-27 10:31N 60°25' E 026°55'3 3.2
2016-Apr-27 09:33N 60°23' E 026°50'1515.5
2016-Apr-27 08:34N 60°14' E 026°25'10 9.4
2016-Apr-27 07:32N 60°06' E 026°34'1610.9
2016-Apr-27 06:06N 59°59' E 027°03'611.1
2016-Apr-27 05:33N 60°02' E 027°13'1111.1
2016-Apr-27 04:33N 60°08' E 027°32'1010.3
2016-Apr-27 03:34N 60°11' E 027°52'1111.4
2016-Apr-27 02:34N 60°08' E 028°14'1111.4
2016-Apr-27 01:34N 60°03' E 028°34'1211.6
2016-Apr-27 00:33N 60°02' E 028°57'1312.0
2016-Apr-26 23:30N 60°02' E 029°22'1210.9
2016-Apr-26 22:26N 59°59' E 029°45'1011.1
2016-Apr-26 21:34N 59°55' E 030°03'6 5.3
2016-Apr-26 20:31N 59°53' E 030°13'0 0.0
2016-Apr-26 19:31N 59°53' E 030°13'0 0.0
2016-Apr-26 18:31N 59°53' E 030°13'0 0.0
2016-Apr-26 17:31N 59°53' E 030°13'0 0.0
2016-Apr-26 16:31N 59°53' E 030°13'0 0.0
2016-Apr-26 15:28N 59°53' E 030°13'1 1.3
2016-Apr-26 14:33N 59°53' E 030°11'1 0.6
2016-Apr-26 13:31N 59°52' E 030°12'0 0.0
2016-Apr-26 12:31N 59°52' E 030°12'0 0.0
2016-Apr-26 11:31N 59°52' E 030°12'0 0.0
2016-Apr-26 10:31N 59°52' E 030°12'0 0.0
2016-Apr-26 09:31N 59°52' E 030°12'0 0.0
2016-Apr-26 08:31N 59°52' E 030°12'0 0.0
2016-Apr-26 07:28N 59°52' E 030°12'0 0.0
2016-Apr-26 06:31N 59°52' E 030°12'0 0.0
2016-Apr-26 05:31N 59°52' E 030°12'0 0.0
2016-Apr-26 04:28N 59°52' E 030°12'0 0.0
2016-Apr-26 03:31N 59°52' E 030°12'0 0.4
2016-Apr-26 02:33N 59°53' E 030°12'7 7.0
2016-Apr-26 01:33N 59°55' E 029°59'1010.2
2016-Apr-26 00:33N 59°60' E 029°40'27 4.3
2016-Apr-25 18:12N 60°02' E 028°46'711.6
2016-Apr-25 17:33N 60°03' E 028°31'  
Track history (hours):
 
Tides and Currents Weather Stations Pressure Air Temp Water Temp Dewpoint Dewpoint Depression Visibility Wind Speed Wind Dir Waves Ship Positions

Suederoog

Last reported at 2016-May-05 17:33 UTC. Time now 2016-May-05 18:05 UTC.
Position N 59°58' E 027°05'.

Length 161 m; draft 8.5 m.

Type: Ship (hazmat cat A). MMSI: 236300000.

Date/timePositionNaut miles runAvg speedWind from/ knotsBaromVisibWave heightAir tempDewpointWater temp
2016-May-05 17:33N 59°58' E 027°05'1211.6
2016-May-05 16:33N 59°60' E 026°41'1212.1
2016-May-05 15:33N 59°56' E 026°18'1212.2
2016-May-05 14:33N 59°53' E 025°55'5112.0
2016-May-05 10:16N 59°42' E 024°15'911.9
2016-May-05 09:33N 59°39' E 023°59'1212.1
2016-May-05 08:32N 59°35' E 023°36'1212.0
2016-May-05 07:32N 59°31' E 023°14'1212.1
2016-May-05 06:33N 59°28' E 022°51'1212.1
2016-May-05 05:33N 59°23' E 022°30'1212.2
2016-May-05 04:33N 59°15' E 022°11'31314.9
2016-May-04 07:32N 55°35' E 015°16'1616.5
2016-May-04 06:34N 55°27' E 014°52'1616.1
2016-May-04 05:33N 55°17' E 014°30'1414.4
2016-May-04 04:33N 55°06' E 014°14'1616.4
2016-May-04 03:34N 54°58' E 013°50'1717.0
2016-May-04 02:34N 54°52' E 013°22'1817.2
2016-May-04 01:30N 54°47' E 012°51'1616.9
2016-May-04 00:32N 54°39' E 012°26'1515.9
2016-May-03 23:34N 54°26' E 012°13'1616.1
2016-May-03 22:34N 54°25' E 011°45'1717.5
2016-May-03 21:34N 54°33' E 011°18'1716.8
2016-May-03 20:34N 54°34' E 010°49'1916.7
2016-May-03 19:26N 54°29' E 010°18'910.5
2016-May-03 18:33N 54°22' E 010°09'2 2.1
2016-May-03 17:33N 54°22' E 010°05'7 6.0
2016-May-03 16:26N 54°21' E 009°54'24 7.4
2016-May-03 13:07N 54°07' E 009°20'4 7.7
2016-May-03 12:33N 54°03' E 009°18'1 1.2
2016-May-03 11:33N 54°01' E 009°18'5 5.3
2016-May-03 10:33N 53°57' E 009°14'4 4.2
2016-May-03 09:33N 53°54' E 009°09'1 1.4
2016-May-03 08:33N 53°53' E 009°07'3 2.8
2016-May-03 07:33N 53°53' E 009°11'7 6.6
2016-May-03 06:33N 53°50' E 009°21'1514.8
2016-May-03 05:33N 53°37' E 009°33'1312.7
2016-May-03 04:33N 53°33' E 009°53'1 1.0
2016-May-03 03:33N 53°32' E 009°55'0 0.0
2016-May-03 02:33N 53°32' E 009°55'0 0.0
2016-May-03 01:32N 53°32' E 009°55'0 0.0
2016-May-03 00:33N 53°32' E 009°55'0 0.0
2016-May-02 23:32N 53°32' E 009°55'0 0.0
2016-May-02 22:33N 53°32' E 009°55'0 0.0
2016-May-02 21:32N 53°32' E 009°55'0 0.0
2016-May-02 20:33N 53°32' E 009°55'0 0.0
2016-May-02 19:33N 53°32' E 009°55'0 0.0
2016-May-02 18:33N 53°32' E 009°55'0 0.0
2016-May-02 17:33N 53°32' E 009°55'0 0.3
2016-May-02 16:33N 53°32' E 009°54'2 1.5
2016-May-02 15:31N 53°32' E 009°57'0 0.0
2016-May-02 14:31N 53°32' E 009°57'0 0.0
2016-May-02 13:31N 53°32' E 009°57'0 0.0
2016-May-02 12:31N 53°32' E 009°57'0 0.0
2016-May-02 11:31N 53°32' E 009°57'0 0.0
2016-May-02 10:31N 53°32' E 009°57'0 0.0
2016-May-02 09:31N 53°32' E 009°57'0 0.0
2016-May-02 08:31N 53°32' E 009°57'0 0.0
2016-May-02 07:31N 53°32' E 009°57'0 0.0
2016-May-02 06:31N 53°32' E 009°57'0 0.0
2016-May-02 05:31N 53°32' E 009°57'0 0.0
2016-May-02 04:31N 53°32' E 009°57'0 0.0
2016-May-02 03:31N 53°32' E 009°57'0 0.0
2016-May-02 02:31N 53°32' E 009°57'0 0.0
2016-May-02 01:31N 53°32' E 009°57'0 0.0
2016-May-02 00:31N 53°32' E 009°57'0 0.0
2016-May-01 23:31N 53°32' E 009°57'0 0.0
2016-May-01 22:31N 53°32' E 009°57'0 0.0
2016-May-01 21:31N 53°32' E 009°57'0 0.0
2016-May-01 20:31N 53°32' E 009°57'0 0.0
2016-May-01 19:31N 53°32' E 009°57'2 2.2
2016-May-01 18:33N 53°32' E 009°54'1414.0
2016-May-01 17:33N 53°38' E 009°32'1817.8
2016-May-01 16:34N 53°53' E 009°15'4 3.8
2016-May-01 15:33N 53°54' E 009°09'1 1.1
2016-May-01 14:34N 53°54' E 009°10'7 6.7
2016-May-01 13:33N 53°60' E 009°17'8 6.9
2016-May-01 12:27N 54°07' E 009°20'9 6.8
2016-May-01 11:05N 54°12' E 009°33'4 6.7
2016-May-01 10:31N 54°15' E 009°37'6 6.0
2016-May-01 09:34N 54°20' E 009°43'6 6.0
2016-May-01 08:34N 54°21' E 009°53'5 4.6
2016-May-01 07:34N 54°22' E 010°01'4 4.3
2016-May-01 06:32N 54°22' E 010°09'1 1.3
2016-May-01 05:34N 54°22' E 010°11'2 2.2
2016-May-01 04:34N 54°24' E 010°12'7 7.3
2016-May-01 03:34N 54°31' E 010°18'0 0.0
2016-May-01 02:32N 54°31' E 010°18'0 0.0
2016-May-01 01:32N 54°31' E 010°18'0 0.0
2016-May-01 00:32N 54°31' E 010°18'0 0.0
2016-Apr-30 23:32N 54°31' E 010°18'0 0.1
2016-Apr-30 22:32N 54°31' E 010°18'0 0.2
2016-Apr-30 21:32N 54°31' E 010°18'9 9.2
2016-Apr-30 20:33N 54°34' E 010°33'1211.8
2016-Apr-30 19:33N 54°35' E 010°53'1211.8
2016-Apr-30 18:33N 54°35' E 011°14'1212.2
2016-Apr-30 17:33N 54°30' E 011°33'1211.6
2016-Apr-30 16:33N 54°26' E 011°52'1111.1
2016-Apr-30 15:33N 54°27' E 012°11'1211.7
2016-Apr-30 14:33N 54°37' E 012°20'4711.7
2016-Apr-30 10:33N 54°58' E 013°33'1211.7
2016-Apr-30 09:33N 55°02' E 013°52'1110.9
2016-Apr-30 08:33N 55°08' E 014°08'1111.2
2016-Apr-30 07:33N 55°16' E 014°21'1111.4
2016-Apr-30 06:33N 55°25' E 014°34'1111.4
2016-Apr-30 05:33N 55°31' E 014°50'1111.2
2016-Apr-30 04:33N 55°37' E 015°08'1111.3
2016-Apr-30 03:33N 55°43' E 015°25'1111.3
2016-Apr-30 02:33N 55°48' E 015°43'1111.3
2016-Apr-30 01:33N 55°53' E 016°01'1211.7
2016-Apr-30 00:32N 55°59' E 016°19'31311.0
2016-Apr-28 20:07N 59°37' E 023°21'610.2
2016-Apr-28 19:33N 59°39' E 023°32'1010.4
2016-Apr-28 18:33N 59°42' E 023°52'7911.3
2016-Apr-28 11:33N 60°09' E 026°20'1212.5
2016-Apr-28 10:33N 60°19' E 026°35'1211.7
2016-Apr-28 09:33N 60°25' E 026°55'0 0.0
2016-Apr-28 08:31N 60°25' E 026°55'0 0.0
2016-Apr-28 07:31N 60°25' E 026°55'0 0.0
2016-Apr-28 06:31N 60°25' E 026°55'0 0.0
2016-Apr-28 05:31N 60°25' E 026°55'0 0.0
2016-Apr-28 04:31N 60°25' E 026°55'0 0.0
2016-Apr-28 03:31N 60°25' E 026°55'0 0.0
2016-Apr-28 02:31N 60°25' E 026°55'0 0.0
2016-Apr-28 01:31N 60°25' E 026°55'0 0.0
2016-Apr-28 00:31N 60°25' E 026°55'0 0.0
2016-Apr-27 23:31N 60°25' E 026°55'0 0.0
2016-Apr-27 22:31N 60°25' E 026°55'0 0.0
2016-Apr-27 21:31N 60°25' E 026°55'0 0.0
2016-Apr-27 20:31N 60°25' E 026°55'0 0.0
2016-Apr-27 19:31N 60°25' E 026°55'0 0.0
2016-Apr-27 18:31N 60°25' E 026°55'0 0.0
2016-Apr-27 17:31N 60°25' E 026°55'0 0.0
2016-Apr-27 16:31N 60°25' E 026°55'0 0.0
2016-Apr-27 15:31N 60°25' E 026°55'0 0.0
2016-Apr-27 14:31N 60°25' E 026°55'0 0.0
2016-Apr-27 13:31N 60°25' E 026°55'0 0.0
2016-Apr-27 12:31N 60°25' E 026°55'0 0.0
2016-Apr-27 11:31N 60°25' E 026°55'0 0.0
2016-Apr-27 10:31N 60°25' E 026°55'3 3.2
2016-Apr-27 09:33N 60°23' E 026°50'1515.5
2016-Apr-27 08:34N 60°14' E 026°25'10 9.4
2016-Apr-27 07:32N 60°06' E 026°34'1610.9
2016-Apr-27 06:06N 59°59' E 027°03'611.1
2016-Apr-27 05:33N 60°02' E 027°13'1111.1
2016-Apr-27 04:33N 60°08' E 027°32'1010.3
2016-Apr-27 03:34N 60°11' E 027°52'1111.4
2016-Apr-27 02:34N 60°08' E 028°14'1111.4
2016-Apr-27 01:34N 60°03' E 028°34'1211.6
2016-Apr-27 00:33N 60°02' E 028°57'1312.0
2016-Apr-26 23:30N 60°02' E 029°22'1210.9
2016-Apr-26 22:26N 59°59' E 029°45'1011.1
2016-Apr-26 21:34N 59°55' E 030°03'6 5.3
2016-Apr-26 20:31N 59°53' E 030°13'0 0.0
2016-Apr-26 19:31N 59°53' E 030°13'0 0.0
2016-Apr-26 18:31N 59°53' E 030°13'0 0.0
2016-Apr-26 17:31N 59°53' E 030°13'0 0.0
2016-Apr-26 16:31N 59°53' E 030°13'0 0.0
2016-Apr-26 15:28N 59°53' E 030°13'1 1.3
2016-Apr-26 14:33N 59°53' E 030°11'1 0.6
2016-Apr-26 13:31N 59°52' E 030°12'0 0.0
2016-Apr-26 12:31N 59°52' E 030°12'0 0.0
2016-Apr-26 11:31N 59°52' E 030°12'0 0.0
2016-Apr-26 10:31N 59°52' E 030°12'0 0.0
2016-Apr-26 09:31N 59°52' E 030°12'0 0.0
2016-Apr-26 08:31N 59°52' E 030°12'0 0.0
2016-Apr-26 07:28N 59°52' E 030°12'0 0.0
2016-Apr-26 06:31N 59°52' E 030°12'0 0.0
2016-Apr-26 05:31N 59°52' E 030°12'0 0.0
2016-Apr-26 04:28N 59°52' E 030°12'0 0.0
2016-Apr-26 03:31N 59°52' E 030°12'0 0.4
2016-Apr-26 02:33N 59°53' E 030°12'7 7.0
2016-Apr-26 01:33N 59°55' E 029°59'1010.2
2016-Apr-26 00:33N 59°60' E 029°40'27 4.3
2016-Apr-25 18:12N 60°02' E 028°46'711.6
2016-Apr-25 17:33N 60°03' E 028°31'  

Dump ship's entire track history